createdAt,value
2024-04-14T00:00:10.555Z,17.71
2024-04-14T00:02:40.385Z,17.94
2024-04-14T00:05:07.530Z,17.93
2024-04-14T00:07:35.319Z,17.85
2024-04-14T00:10:02.025Z,17.97
2024-04-14T00:12:28.992Z,17.91
2024-04-14T00:14:56.343Z,17.92
2024-04-14T00:17:23.039Z,17.92
2024-04-14T00:19:54.045Z,17.90
2024-04-14T00:22:21.710Z,18.03
2024-04-14T00:24:48.519Z,18.02
2024-04-14T00:27:15.339Z,18.04
2024-04-14T00:29:42.010Z,18.03
2024-04-14T00:32:08.925Z,18.04
2024-04-14T00:34:35.610Z,18.01
2024-04-14T00:37:02.392Z,18.07
2024-04-14T00:39:29.153Z,17.99
2024-04-14T00:41:56.339Z,17.99
2024-04-14T00:44:22.976Z,17.99
2024-04-14T00:46:49.760Z,18.05
2024-04-14T00:49:16.612Z,18.04
2024-04-14T00:51:43.428Z,18.02
2024-04-14T00:54:12.843Z,18.02
2024-04-14T00:56:40.194Z,18.09
2024-04-14T00:59:06.939Z,18.12
2024-04-14T01:01:33.656Z,18.05
2024-04-14T01:04:00.518Z,18.05
2024-04-14T01:06:27.424Z,18.11
2024-04-14T01:08:54.385Z,17.86
2024-04-14T01:11:21.404Z,18.01
2024-04-14T01:13:48.387Z,17.97
2024-04-14T01:16:15.127Z,18.02
2024-04-14T01:18:41.855Z,17.99
2024-04-14T01:21:08.668Z,18.03
2024-04-14T01:23:35.347Z,18.01
2024-04-14T01:26:02.138Z,17.96
2024-04-14T01:28:28.752Z,18.03
2024-04-14T01:30:55.504Z,17.97
2024-04-14T01:33:22.289Z,18.09
2024-04-14T01:35:49.075Z,18.08
2024-04-14T01:38:22.058Z,18.02
2024-04-14T01:40:52.955Z,17.97
2024-04-14T01:43:19.598Z,17.97
2024-04-14T01:45:46.847Z,17.98
2024-04-14T01:48:13.848Z,17.94
2024-04-14T01:50:40.649Z,17.96
2024-04-14T01:53:07.328Z,18.00
2024-04-14T01:55:34.274Z,17.95
2024-04-14T01:58:01.101Z,18.02
2024-04-14T02:00:28.210Z,18.11
2024-04-14T02:02:57.525Z,18.11
2024-04-14T02:05:24.592Z,18.07
2024-04-14T02:07:51.265Z,18.02
2024-04-14T02:10:18.003Z,17.93
2024-04-14T02:12:44.691Z,18.05
2024-04-14T02:15:11.449Z,18.07
2024-04-14T02:17:38.402Z,18.08
2024-04-14T02:20:05.999Z,18.06
2024-04-14T02:22:33.022Z,17.99
2024-04-14T02:25:00.092Z,18.00
2024-04-14T02:27:26.850Z,18.04
2024-04-14T02:29:53.594Z,18.06
2024-04-14T02:32:21.240Z,18.05
2024-04-14T02:34:48.015Z,18.03
2024-04-14T02:37:14.644Z,17.99
2024-04-14T02:39:41.372Z,17.97
2024-04-14T02:42:08.038Z,18.03
2024-04-14T02:44:34.728Z,18.00
2024-04-14T02:47:01.402Z,18.01
2024-04-14T02:49:29.928Z,18.02
2024-04-14T02:51:57.438Z,17.97
2024-04-14T02:54:24.887Z,17.95
2024-04-14T02:56:51.733Z,17.83
2024-04-14T02:59:18.512Z,17.69
2024-04-14T03:01:48.159Z,17.88
2024-04-14T03:04:15.148Z,17.94
2024-04-14T03:06:41.970Z,17.89
2024-04-14T03:09:08.782Z,17.89
2024-04-14T03:11:35.798Z,17.82
2024-04-14T03:14:02.953Z,17.88
2024-04-14T03:16:29.698Z,17.85
2024-04-14T03:18:56.547Z,17.94
2024-04-14T03:21:24.618Z,17.90
2024-04-14T03:23:51.735Z,17.88
2024-04-14T03:26:18.693Z,17.67
2024-04-14T03:28:45.503Z,17.83
2024-04-14T03:31:12.574Z,17.88
2024-04-14T03:33:39.437Z,17.73
2024-04-14T03:36:08.548Z,17.73
2024-04-14T03:38:35.821Z,17.68
2024-04-14T03:41:03.299Z,17.73
2024-04-14T03:43:30.211Z,17.68
2024-04-14T03:45:57.250Z,17.73
2024-04-14T03:48:24.324Z,17.69
2024-04-14T03:50:51.027Z,17.70
2024-04-14T03:53:17.866Z,17.62
2024-04-14T03:55:44.516Z,17.63
2024-04-14T03:58:11.286Z,17.54
2024-04-14T04:00:38.255Z,17.53
2024-04-14T04:03:05.168Z,17.54
2024-04-14T04:05:31.919Z,17.48
2024-04-14T04:08:00.001Z,17.49
2024-04-14T04:10:26.755Z,17.51
2024-04-14T04:15:20.179Z,17.46
2024-04-14T04:17:49.144Z,17.42
2024-04-14T04:20:15.968Z,17.38
2024-04-14T04:22:42.655Z,17.28
2024-04-14T04:25:09.539Z,17.38
2024-04-14T04:27:36.313Z,17.41
2024-04-14T04:30:03.442Z,17.44
2024-04-14T04:32:30.206Z,17.38
2024-04-14T04:34:56.883Z,17.34
2024-04-14T04:37:23.615Z,17.45
2024-04-14T04:39:50.486Z,17.50
2024-04-14T04:42:17.259Z,17.50
2024-04-14T04:44:44.001Z,17.45
2024-04-14T04:47:10.984Z,17.23
2024-04-14T04:49:37.665Z,17.43
2024-04-14T04:52:04.891Z,17.36
2024-04-14T04:54:31.592Z,17.38
2024-04-14T04:56:58.317Z,17.44
2024-04-14T04:59:25.123Z,17.43
2024-04-14T05:01:51.755Z,17.40
2024-04-14T05:04:18.586Z,17.37
2024-04-14T05:06:45.369Z,17.43
2024-04-14T05:09:12.223Z,17.53
2024-04-14T05:11:38.902Z,17.48
2024-04-14T05:14:06.205Z,17.49
2024-04-14T05:16:32.901Z,17.51
2024-04-14T05:18:59.627Z,17.57
2024-04-14T05:21:26.380Z,17.59
2024-04-14T05:23:53.063Z,17.67
2024-04-14T05:26:19.781Z,17.74
2024-04-14T05:28:46.586Z,17.83
2024-04-14T05:31:13.479Z,17.90
2024-04-14T05:33:40.147Z,17.89
2024-04-14T05:36:07.557Z,17.97
2024-04-14T05:38:36.694Z,18.05
2024-04-14T05:41:03.894Z,18.15
2024-04-14T05:43:30.639Z,18.29
2024-04-14T05:45:58.735Z,18.33
2024-04-14T05:48:25.669Z,18.36
2024-04-14T05:50:52.488Z,18.41
2024-04-14T05:53:19.193Z,18.45
2024-04-14T05:55:47.262Z,18.52
2024-04-14T05:58:14.051Z,18.56
2024-04-14T06:00:41.108Z,18.58
2024-04-14T06:03:08.579Z,18.67
2024-04-14T06:05:35.595Z,18.57
2024-04-14T06:08:03.056Z,18.69
2024-04-14T06:10:29.887Z,18.72
2024-04-14T06:12:56.649Z,18.76
2024-04-14T06:15:25.851Z,18.79
2024-04-14T06:17:52.642Z,18.81
2024-04-14T06:20:19.358Z,18.83
2024-04-14T06:22:46.037Z,18.85
2024-04-14T06:25:12.782Z,18.86
2024-04-14T06:27:39.454Z,18.82
2024-04-14T06:30:08.437Z,18.89
2024-04-14T06:32:36.695Z,18.91
2024-04-14T06:35:03.688Z,18.83
2024-04-14T06:37:30.421Z,19.00
2024-04-14T06:39:57.306Z,19.07
2024-04-14T06:42:23.985Z,19.07
2024-04-14T06:44:50.797Z,18.97
2024-04-14T06:47:17.812Z,19.02
2024-04-14T06:49:44.605Z,19.01
2024-04-14T06:52:11.271Z,19.07
2024-04-14T06:54:37.998Z,19.01
2024-04-14T06:57:05.076Z,18.96
2024-04-14T06:59:31.791Z,18.79
2024-04-14T07:01:58.671Z,18.99
2024-04-14T07:04:25.633Z,19.14
2024-04-14T07:06:52.686Z,19.16
2024-04-14T07:09:19.438Z,19.15
2024-04-14T07:11:46.629Z,19.27
2024-04-14T07:14:13.380Z,19.25
2024-04-14T07:16:40.198Z,19.29
2024-04-14T07:19:06.945Z,19.33
2024-04-14T07:21:37.471Z,19.47
2024-04-14T07:24:05.095Z,19.54
2024-04-14T07:26:31.785Z,19.74
2024-04-14T07:28:58.881Z,19.78
2024-04-14T07:31:25.883Z,19.65
2024-04-14T07:34:04.637Z,19.63
2024-04-14T07:36:31.569Z,19.49
2024-04-14T07:38:58.532Z,19.56
2024-04-14T07:41:25.645Z,19.64
2024-04-14T07:43:53.494Z,19.55
2024-04-14T07:46:20.300Z,19.55
2024-04-14T07:48:47.308Z,19.79
2024-04-14T07:51:14.239Z,19.93
2024-04-14T07:53:40.901Z,19.67
2024-04-14T07:56:07.984Z,19.60
2024-04-14T07:58:34.595Z,19.55
2024-04-14T08:01:03.567Z,19.39
2024-04-14T08:03:42.569Z,19.09
2024-04-14T08:06:19.615Z,19.36
2024-04-14T08:08:46.336Z,19.16
2024-04-14T08:11:13.330Z,19.15
2024-04-14T08:13:40.666Z,19.05
2024-04-14T08:16:07.969Z,18.92
2024-04-14T08:18:34.842Z,18.95
2024-04-14T08:21:03.531Z,19.10
2024-04-14T08:23:30.358Z,18.96
2024-04-14T08:25:57.109Z,18.70
2024-04-14T08:28:24.129Z,18.59
2024-04-14T08:30:51.056Z,18.20
2024-04-14T08:33:17.788Z,17.87
2024-04-14T08:35:44.523Z,17.76
2024-04-14T08:38:12.215Z,18.14
2024-04-14T08:40:39.012Z,18.53
2024-04-14T08:43:05.900Z,18.58
2024-04-14T08:45:34.313Z,18.24
2024-04-14T08:48:03.559Z,18.27
2024-04-14T08:50:31.696Z,18.49
2024-04-14T08:52:58.476Z,18.02
2024-04-14T08:55:25.334Z,18.40
2024-04-14T08:57:52.359Z,17.94
2024-04-14T09:00:20.756Z,18.41
2024-04-14T09:02:47.617Z,18.66
2024-04-14T09:05:14.587Z,19.11
2024-04-14T09:07:41.395Z,19.00
2024-04-14T09:10:08.592Z,18.82
2024-04-14T09:12:35.315Z,18.38
2024-04-14T09:15:05.749Z,18.42
2024-04-14T09:17:36.110Z,18.51
2024-04-14T09:20:03.654Z,18.56
2024-04-14T09:22:30.424Z,18.59
2024-04-14T09:24:57.235Z,19.07
2024-04-14T09:27:25.366Z,18.85
2024-04-14T09:29:54.894Z,18.69
2024-04-14T09:32:21.873Z,18.66
2024-04-14T09:34:48.635Z,18.64
2024-04-14T09:37:19.696Z,18.90
2024-04-14T09:39:48.756Z,18.85
2024-04-14T09:42:15.844Z,18.80
2024-04-14T09:44:43.778Z,19.26
2024-04-14T09:47:12.226Z,19.46
2024-04-14T09:49:40.179Z,19.38
2024-04-14T09:52:09.084Z,19.23
2024-04-14T09:54:38.002Z,19.27
2024-04-14T09:57:05.066Z,19.36
2024-04-14T09:59:31.903Z,19.77
2024-04-14T10:01:59.733Z,19.78
2024-04-14T10:04:28.502Z,19.79
2024-04-14T10:06:55.635Z,19.28
2024-04-14T10:09:25.776Z,19.23
2024-04-14T10:11:52.924Z,19.36
2024-04-14T10:14:20.574Z,19.61
2024-04-14T10:16:57.489Z,19.30
2024-04-14T10:19:24.263Z,19.33
2024-04-14T10:22:00.616Z,19.32
2024-04-14T10:24:27.559Z,19.11
2024-04-14T10:27:05.762Z,19.17
2024-04-14T10:29:32.969Z,19.02
2024-04-14T10:31:59.779Z,18.84
2024-04-14T10:34:31.071Z,19.16
2024-04-14T10:36:58.859Z,19.36
2024-04-14T10:39:25.977Z,19.35
2024-04-14T10:41:52.970Z,19.17
2024-04-14T10:44:20.204Z,18.88
2024-04-14T10:46:50.310Z,18.97
2024-04-14T10:49:18.138Z,18.94
2024-04-14T10:51:47.602Z,19.04
2024-04-14T10:54:14.276Z,18.81
2024-04-14T10:56:40.901Z,18.77
2024-04-14T10:59:07.616Z,18.51
2024-04-14T11:01:34.917Z,18.56
2024-04-14T11:04:04.416Z,18.89
2024-04-14T11:06:31.348Z,19.08
2024-04-14T11:09:00.321Z,19.18
2024-04-14T11:11:27.247Z,19.32
2024-04-14T11:13:54.300Z,19.64
2024-04-14T11:16:21.088Z,20.32
2024-04-14T11:18:49.072Z,20.88
2024-04-14T11:21:19.827Z,20.93
2024-04-14T11:23:49.758Z,20.93
2024-04-14T11:26:16.612Z,20.94
2024-04-14T11:28:43.406Z,21.39
2024-04-14T11:31:10.377Z,21.34
2024-04-14T11:33:38.536Z,22.03
2024-04-14T11:36:10.819Z,21.10
2024-04-14T11:38:38.121Z,20.94
2024-04-14T11:41:06.195Z,20.73
2024-04-14T11:43:32.945Z,20.71
2024-04-14T11:45:59.625Z,20.90
2024-04-14T11:48:26.624Z,21.12
2024-04-14T11:50:53.885Z,21.12
2024-04-14T11:53:20.720Z,21.25
2024-04-14T11:55:47.382Z,21.58
2024-04-14T11:58:17.710Z,21.84
2024-04-14T12:00:44.761Z,22.68
2024-04-14T12:03:12.875Z,21.93
2024-04-14T12:05:39.641Z,23.01
2024-04-14T12:08:06.779Z,22.59
2024-04-14T12:10:34.342Z,21.87
2024-04-14T12:13:01.295Z,21.57
2024-04-14T12:15:28.270Z,21.70
2024-04-14T12:17:55.029Z,20.99
2024-04-14T12:20:22.023Z,20.65
2024-04-14T12:22:48.754Z,20.95
2024-04-14T12:25:15.798Z,20.85
2024-04-14T12:27:42.682Z,20.55
2024-04-14T12:30:09.650Z,20.69
2024-04-14T12:32:37.187Z,21.25
2024-04-14T12:35:04.850Z,21.15
2024-04-14T12:37:31.593Z,21.55
2024-04-14T12:39:58.649Z,21.55
2024-04-14T12:42:25.640Z,21.49
2024-04-14T12:44:52.284Z,21.28
2024-04-14T12:47:18.956Z,21.90
2024-04-14T12:49:45.598Z,21.70
2024-04-14T12:52:12.304Z,21.37
2024-04-14T12:54:39.011Z,21.09
2024-04-14T12:57:05.800Z,21.36
2024-04-14T12:59:32.488Z,22.05
2024-04-14T13:01:59.210Z,21.84
2024-04-14T13:04:26.007Z,21.87
2024-04-14T13:06:52.668Z,21.44
2024-04-14T13:09:19.335Z,21.19
2024-04-14T13:11:46.273Z,20.84
2024-04-14T13:14:12.998Z,20.59
2024-04-14T13:16:39.690Z,21.26
2024-04-14T13:19:06.455Z,21.18
2024-04-14T13:21:34.852Z,21.34
2024-04-14T13:24:01.755Z,21.42
2024-04-14T13:26:29.156Z,21.28
2024-04-14T13:28:55.948Z,21.14
2024-04-14T13:31:22.603Z,21.80
2024-04-14T13:33:49.698Z,21.39
2024-04-14T13:36:16.543Z,20.61
2024-04-14T13:38:43.265Z,20.37
2024-04-14T13:41:10.288Z,20.68
2024-04-14T13:43:37.151Z,20.29
2024-04-14T13:46:04.069Z,20.71
2024-04-14T13:48:30.859Z,20.39
2024-04-14T13:50:57.542Z,20.06
2024-04-14T13:53:24.182Z,19.98
2024-04-14T13:55:50.851Z,19.87
2024-04-14T13:58:21.413Z,20.17
2024-04-14T14:00:49.077Z,20.35
2024-04-14T14:03:16.285Z,20.81
2024-04-14T14:05:43.060Z,20.96
2024-04-14T14:08:10.073Z,20.97
2024-04-14T14:10:36.936Z,19.98
2024-04-14T14:13:03.974Z,20.02
2024-04-14T14:15:30.802Z,19.70
2024-04-14T14:17:57.793Z,19.77
2024-04-14T14:20:24.442Z,19.72
2024-04-14T14:22:51.192Z,19.70
2024-04-14T14:25:17.921Z,19.75
2024-04-14T14:27:44.597Z,20.35
2024-04-14T14:30:11.405Z,20.01
2024-04-14T14:32:41.114Z,19.70
2024-04-14T14:35:26.607Z,19.39
2024-04-14T14:37:53.377Z,19.47
2024-04-14T14:40:20.141Z,19.06
2024-04-14T14:42:48.802Z,19.08
2024-04-14T14:45:15.682Z,19.21
2024-04-14T14:47:42.484Z,19.60
2024-04-14T14:50:09.317Z,19.30
2024-04-14T14:52:36.669Z,19.21
2024-04-14T14:55:04.154Z,19.18
2024-04-14T14:57:31.024Z,19.05
2024-04-14T14:59:57.724Z,19.08
2024-04-14T15:02:24.517Z,19.33
2024-04-14T15:04:51.359Z,19.28
2024-04-14T15:07:18.118Z,19.80
2024-04-14T15:09:55.401Z,20.18
2024-04-14T15:12:22.556Z,20.08
2024-04-14T15:14:50.283Z,20.20
2024-04-14T15:17:17.034Z,19.62
2024-04-14T15:19:45.485Z,19.23
2024-04-14T15:22:14.565Z,19.55
2024-04-14T15:24:41.866Z,19.62
2024-04-14T15:27:08.752Z,19.62
2024-04-14T15:29:35.536Z,19.60
2024-04-14T15:32:02.827Z,19.21
2024-04-14T15:34:29.565Z,18.82
2024-04-14T15:36:57.375Z,18.97
2024-04-14T15:39:25.882Z,19.14
2024-04-14T15:41:53.117Z,18.88
2024-04-14T15:44:25.841Z,18.55
2024-04-14T15:46:54.499Z,18.48
2024-04-14T15:49:21.448Z,18.30
2024-04-14T15:51:48.305Z,18.19
2024-04-14T15:54:16.272Z,18.25
2024-04-14T15:56:43.038Z,18.02
2024-04-14T15:59:10.624Z,17.95
2024-04-14T16:01:37.501Z,17.68
2024-04-14T16:04:04.458Z,17.66
2024-04-14T16:06:31.257Z,17.65
2024-04-14T16:08:58.282Z,17.59
2024-04-14T16:11:25.384Z,17.51
2024-04-14T16:13:53.838Z,17.50
2024-04-14T16:16:21.578Z,17.44
2024-04-14T16:18:48.812Z,17.30
2024-04-14T16:21:15.708Z,17.56
2024-04-14T16:23:47.318Z,17.40
2024-04-14T16:26:14.730Z,17.49
2024-04-14T16:28:42.135Z,17.51
2024-04-14T16:31:10.437Z,17.27
2024-04-14T16:33:37.372Z,17.25
2024-04-14T16:36:05.907Z,17.04
2024-04-14T16:38:32.611Z,17.24
2024-04-14T16:40:59.523Z,17.21
2024-04-14T16:43:26.289Z,17.20
2024-04-14T16:45:53.260Z,17.09
2024-04-14T16:48:20.085Z,16.98
2024-04-14T16:50:46.871Z,16.85
2024-04-14T16:53:13.598Z,16.88
2024-04-14T16:55:40.464Z,16.81
2024-04-14T16:58:07.343Z,16.90
2024-04-14T17:00:36.340Z,16.69
2024-04-14T17:03:03.750Z,16.82
2024-04-14T17:05:30.586Z,16.74
2024-04-14T17:07:57.383Z,16.71
2024-04-14T17:10:24.746Z,16.80
2024-04-14T17:12:51.436Z,16.84
2024-04-14T17:15:18.223Z,16.82
2024-04-14T17:17:45.173Z,16.62
2024-04-14T17:20:11.976Z,16.62
2024-04-14T17:22:38.689Z,16.62
2024-04-14T17:25:06.372Z,16.50
2024-04-14T17:27:33.086Z,16.41
2024-04-14T17:29:59.855Z,16.45
2024-04-14T17:32:26.531Z,16.35
2024-04-14T17:34:54.219Z,16.42
2024-04-14T17:37:21.392Z,16.21
2024-04-14T17:39:48.254Z,16.26
2024-04-14T17:42:15.057Z,16.13
2024-04-14T17:44:41.819Z,16.09
2024-04-14T17:47:08.881Z,15.93
2024-04-14T17:49:35.739Z,15.95
2024-04-14T17:52:02.460Z,15.97
2024-04-14T17:54:29.291Z,15.74
2024-04-14T17:57:01.908Z,15.90
2024-04-14T17:59:29.053Z,15.85
2024-04-14T18:01:55.896Z,15.46
2024-04-14T18:04:22.743Z,15.65
2024-04-14T18:06:49.695Z,15.53
2024-04-14T18:09:18.545Z,15.36
2024-04-14T18:11:45.230Z,15.41
2024-04-14T18:14:15.112Z,15.24
2024-04-14T18:16:42.113Z,15.26
2024-04-14T18:19:09.685Z,15.06
2024-04-14T18:21:36.495Z,15.06
2024-04-14T18:24:03.265Z,15.15
2024-04-14T18:26:35.310Z,15.24
2024-04-14T18:29:02.482Z,15.13
2024-04-14T18:31:29.809Z,15.00
2024-04-14T18:33:57.223Z,15.24
2024-04-14T18:36:23.913Z,15.12
2024-04-14T18:38:50.700Z,15.11
2024-04-14T18:41:17.420Z,15.12
2024-04-14T18:43:44.130Z,15.09
2024-04-14T18:46:11.589Z,14.95
2024-04-14T18:48:40.841Z,14.82
2024-04-14T18:51:07.701Z,15.08
2024-04-14T18:53:34.403Z,15.21
2024-04-14T18:56:01.792Z,15.18
2024-04-14T18:58:33.085Z,15.15
2024-04-14T19:01:03.387Z,14.98
2024-04-14T19:03:30.608Z,15.04
2024-04-14T19:06:04.645Z,14.78
2024-04-14T19:08:31.761Z,14.93
2024-04-14T19:10:58.540Z,14.96
2024-04-14T19:13:25.426Z,14.89
2024-04-14T19:15:59.566Z,14.83
2024-04-14T19:18:26.517Z,14.79
2024-04-14T19:20:53.732Z,14.75
2024-04-14T19:23:21.312Z,14.76
2024-04-14T19:25:48.572Z,14.74
2024-04-14T19:28:16.951Z,14.77
2024-04-14T19:30:44.218Z,14.65
2024-04-14T19:33:10.991Z,14.41
2024-04-14T19:35:43.896Z,14.60
2024-04-14T19:38:17.967Z,14.66
2024-04-14T19:40:44.655Z,14.61
2024-04-14T19:43:11.544Z,14.49
2024-04-14T19:45:38.304Z,14.65
2024-04-14T19:48:05.510Z,14.45
2024-04-14T19:50:32.480Z,14.37
2024-04-14T19:52:59.305Z,14.03
2024-04-14T19:55:25.994Z,14.33
2024-04-14T19:57:54.397Z,14.43
2024-04-14T20:00:22.016Z,14.46
2024-04-14T20:02:48.977Z,14.37
2024-04-14T20:05:15.706Z,14.25
2024-04-14T20:07:42.514Z,14.34
2024-04-14T20:10:10.914Z,14.26
2024-04-14T20:12:37.701Z,14.45
2024-04-14T20:15:05.541Z,14.14
2024-04-14T20:17:32.387Z,14.29
2024-04-14T20:19:59.177Z,14.16
2024-04-14T20:22:26.182Z,14.35
2024-04-14T20:24:52.850Z,14.00
2024-04-14T20:27:19.590Z,14.17
2024-04-14T20:29:46.394Z,14.23
2024-04-14T20:32:13.076Z,14.27
2024-04-14T20:34:41.036Z,14.14
2024-04-14T20:37:07.756Z,14.22
2024-04-14T20:39:34.433Z,14.14
2024-04-14T20:42:01.152Z,14.05
2024-04-14T20:44:27.956Z,13.98
2024-04-14T20:46:54.679Z,13.57
2024-04-14T20:49:21.333Z,13.88
2024-04-14T20:51:48.316Z,13.79
2024-04-14T20:54:15.006Z,13.67
2024-04-14T20:56:42.183Z,13.70
2024-04-14T20:59:09.079Z,13.60
2024-04-14T21:01:35.972Z,13.53
2024-04-14T21:04:02.653Z,13.56
2024-04-14T21:06:29.403Z,13.14
2024-04-14T21:08:56.063Z,13.31
2024-04-14T21:11:22.887Z,13.31
2024-04-14T21:13:49.689Z,13.19
2024-04-14T21:16:16.743Z,13.04
2024-04-14T21:18:43.667Z,13.05
2024-04-14T21:21:10.692Z,13.07
2024-04-14T21:23:40.387Z,13.19
2024-04-14T21:26:09.319Z,13.25
2024-04-14T21:28:37.293Z,12.99
2024-04-14T21:31:04.939Z,13.05
2024-04-14T21:33:32.233Z,12.95
2024-04-14T21:35:59.119Z,12.88
2024-04-14T21:38:26.025Z,12.93
2024-04-14T21:40:54.137Z,12.89
2024-04-14T21:43:20.787Z,12.84
2024-04-14T21:45:58.076Z,12.76
2024-04-14T21:48:25.540Z,12.60
2024-04-14T21:51:06.102Z,12.66
2024-04-14T21:53:34.274Z,12.55
2024-04-14T21:56:01.641Z,12.49
2024-04-14T21:58:33.181Z,12.45
2024-04-14T22:01:02.188Z,12.39
2024-04-14T22:03:30.329Z,12.19
2024-04-14T22:05:58.852Z,12.40
2024-04-14T22:08:30.856Z,12.31
2024-04-14T22:11:00.162Z,12.23
2024-04-14T22:13:29.190Z,12.03
2024-04-14T22:15:56.087Z,12.09
2024-04-14T22:18:23.292Z,12.15
2024-04-14T22:20:50.267Z,12.12
2024-04-14T22:23:16.932Z,12.19
2024-04-14T22:25:43.642Z,12.07
2024-04-14T22:28:10.283Z,12.03
2024-04-14T22:30:38.020Z,12.11
2024-04-14T22:33:06.462Z,11.96
2024-04-14T22:35:33.280Z,11.88
2024-04-14T22:38:04.652Z,11.93
2024-04-14T22:40:31.611Z,11.89
2024-04-14T22:42:58.644Z,11.82
2024-04-14T22:45:25.519Z,11.78
2024-04-14T22:47:52.502Z,11.68
2024-04-14T22:50:19.716Z,11.92
2024-04-14T22:52:46.463Z,11.93
2024-04-14T22:55:13.208Z,11.96
2024-04-14T22:57:40.147Z,11.95
2024-04-14T23:00:11.238Z,11.93
2024-04-14T23:02:38.227Z,11.95
2024-04-14T23:05:05.381Z,11.96
2024-04-14T23:07:32.194Z,11.85
2024-04-14T23:09:58.935Z,11.82
2024-04-14T23:12:25.905Z,11.85
2024-04-14T23:14:52.720Z,11.91
2024-04-14T23:17:19.478Z,11.99
2024-04-14T23:19:46.189Z,12.04
2024-04-14T23:22:12.899Z,11.87
2024-04-14T23:24:39.822Z,11.56
2024-04-14T23:27:06.713Z,11.38
2024-04-14T23:29:33.320Z,11.71
2024-04-14T23:31:59.990Z,11.93
2024-04-14T23:34:26.668Z,11.93
2024-04-14T23:36:56.346Z,11.89
2024-04-14T23:39:23.264Z,11.95
2024-04-14T23:41:50.722Z,11.81
2024-04-14T23:44:17.346Z,11.80
2024-04-14T23:46:44.536Z,11.95
2024-04-14T23:49:11.318Z,11.87
2024-04-14T23:51:38.097Z,11.88
2024-04-14T23:54:05.891Z,11.88
2024-04-14T23:56:32.515Z,11.88
2024-04-14T23:58:59.155Z,11.85
